Time;durP1;ratioP1;P1;durP2;ratioP2;P2;SDS_P1;SDS_P2;PMS_P1;PMS_P2;Temp;Humidity;BMP_temperature;BMP_pressure;BME280_temperature;BME280_humidity;BME280_pressure;Samples;Min_cycle;Max_cycle;Signal;HPM_P1;HPM_P2
2024/01/07 00:02:09;;;;;;;54.00;29.90;;;;;;;3.20;100.00;100121.47;109500;1240;70777;-81
2024/01/07 00:04:40;;;;;;;50.20;30.60;;;;;;;3.27;100.00;100113.06;109738;1240;63662;-82
2024/01/07 00:07:08;;;;;;;53.10;30.20;;;;;;;3.30;100.00;100105.30;109607;1241;61188;-80
2024/01/07 00:09:37;;;;;;;53.70;30.00;;;;;;;3.28;100.00;100100.60;109622;1241;60536;-81
2024/01/07 00:12:07;;;;;;;49.50;29.70;;;;;;;3.24;100.00;100096.69;109744;1240;72090;-80
2024/01/07 00:14:35;;;;;;;50.90;30.80;;;;;;;3.31;100.00;100095.31;109583;1241;72236;-80
2024/01/07 00:17:04;;;;;;;50.70;28.90;;;;;;;3.44;100.00;100094.94;109699;1241;59973;-80
2024/01/07 00:19:35;;;;;;;44.80;26.20;;;;;;;3.53;100.00;100095.00;109658;1242;63722;-80
2024/01/07 00:22:04;;;;;;;45.60;26.80;;;;;;;3.48;100.00;100091.09;109598;1241;57705;-83
2024/01/07 00:24:35;;;;;;;41.60;24.50;;;;;;;3.38;100.00;100093.86;109704;1242;57102;-83
2024/01/07 00:27:04;;;;;;;42.60;25.90;;;;;;;3.37;100.00;100098.59;109707;1240;73538;-84
2024/01/07 00:29:37;;;;;;;41.60;24.00;;;;;;;3.40;100.00;100099.27;109727;1240;72840;-83
2024/01/07 00:32:06;;;;;;;40.20;24.10;;;;;;;3.33;100.00;100107.74;109680;1241;69571;-83
2024/01/07 00:34:35;;;;;;;38.10;22.70;;;;;;;3.26;100.00;100110.70;109689;1241;73732;-82
2024/01/07 00:37:05;;;;;;;40.10;21.30;;;;;;;3.22;100.00;100118.63;109501;1244;61545;-82
2024/01/07 00:39:36;;;;;;;43.30;23.60;;;;;;;3.15;100.00;100115.55;109571;1241;61579;-78
2024/01/07 00:42:05;;;;;;;37.50;22.50;;;;;;;3.06;100.00;100106.53;109591;1240;73076;-80
2024/01/07 00:44:33;;;;;;;42.70;26.30;;;;;;;2.96;100.00;100104.83;109740;1241;72548;-81
2024/01/07 00:47:02;;;;;;;42.20;22.90;;;;;;;2.95;100.00;100106.22;109742;1240;59408;-80
2024/01/07 00:49:32;;;;;;;39.00;22.90;;;;;;;2.91;100.00;100108.85;109637;1241;73737;-79
2024/01/07 00:52:02;;;;;;;46.50;25.40;;;;;;;2.75;100.00;100104.50;109607;1241;57156;-80
2024/01/07 00:54:31;;;;;;;42.00;24.80;;;;;;;2.67;100.00;100103.48;109698;1240;59918;-79
2024/01/07 00:57:00;;;;;;;38.60;22.30;;;;;;;2.81;100.00;100105.70;109610;1240;63623;-78
2024/01/07 00:59:29;;;;;;;42.90;24.40;;;;;;;2.88;100.00;100098.52;109750;1241;61596;-80
2024/01/07 01:01:58;;;;;;;37.30;21.30;;;;;;;2.82;100.00;100098.29;109499;1240;59630;-80
2024/01/07 01:04:27;;;;;;;38.90;23.40;;;;;;;2.80;100.00;100099.78;109714;1241;62329;-80
2024/01/07 01:06:56;;;;;;;41.00;22.10;;;;;;;2.81;100.00;100102.13;109766;1241;57187;-78
2024/01/07 01:09:29;;;;;;;43.50;24.10;;;;;;;2.77;100.00;100098.71;109667;1244;57167;-80
2024/01/07 01:11:58;;;;;;;44.80;23.90;;;;;;;2.79;100.00;100093.95;109722;1241;73433;-80
2024/01/07 01:14:27;;;;;;;42.30;24.70;;;;;;;2.72;100.00;100092.73;109788;1240;61958;-83
2024/01/07 01:16:56;;;;;;;43.60;25.30;;;;;;;2.72;100.00;100098.45;109772;1243;58982;-81
2024/01/07 01:19:25;;;;;;;43.60;24.80;;;;;;;2.78;100.00;100104.35;109752;1241;72982;-81
2024/01/07 01:21:54;;;;;;;39.80;23.00;;;;;;;2.94;100.00;100109.91;109664;1244;57468;-82
2024/01/07 01:24:23;;;;;;;39.80;23.20;;;;;;;2.92;100.00;100100.20;109853;1241;60952;-81
2024/01/07 01:27:00;;;;;;;37.30;21.70;;;;;;;2.86;100.00;100099.13;109846;1241;72874;-80
2024/01/07 01:29:29;;;;;;;37.20;20.30;;;;;;;2.84;100.00;100103.52;110195;1240;71772;-80
2024/01/07 01:31:57;;;;;;;38.40;21.90;;;;;;;2.91;100.00;100104.52;109873;1241;69770;-80
2024/01/07 01:34:26;;;;;;;40.80;23.60;;;;;;;2.89;100.00;100102.38;109793;1241;74191;-82
2024/01/07 01:36:55;;;;;;;34.50;20.90;;;;;;;2.84;100.00;100097.48;109724;1241;62055;-81
2024/01/07 01:39:24;;;;;;;38.10;20.90;;;;;;;2.86;100.00;100092.92;109755;1243;57711;-81
2024/01/07 01:41:53;;;;;;;38.90;21.10;;;;;;;2.82;100.00;100090.21;109909;1240;73478;-82
2024/01/07 01:44:22;;;;;;;40.20;20.70;;;;;;;2.82;100.00;100090.36;109788;1241;62683;-81
2024/01/07 01:46:51;;;;;;;39.40;21.30;;;;;;;2.83;100.00;100085.86;109740;1240;67811;-79
2024/01/07 01:49:21;;;;;;;39.40;23.80;;;;;;;2.75;100.00;100080.40;109743;1240;63892;-79
2024/01/07 01:51:52;;;;;;;36.80;21.70;;;;;;;2.73;100.00;100079.33;109637;1244;58211;-79
2024/01/07 01:54:22;;;;;;;38.10;22.50;;;;;;;2.86;100.00;100080.00;109895;1241;61469;-77
2024/01/07 01:56:51;;;;;;;36.90;21.60;;;;;;;2.84;100.00;100074.44;109796;1241;63612;-77
2024/01/07 01:59:21;;;;;;;37.00;23.90;;;;;;;2.79;100.00;100070.27;109623;1244;72123;-78
2024/01/07 02:01:49;;;;;;;41.40;23.80;;;;;;;2.80;100.00;100071.23;109697;1240;70224;-78
2024/01/07 02:04:18;;;;;;;38.10;22.70;;;;;;;2.96;100.00;100074.73;109506;1241;63580;-79
2024/01/07 02:06:47;;;;;;;33.20;19.80;;;;;;;2.99;100.00;100070.60;109556;1242;58076;-82
2024/01/07 02:09:16;;;;;;;41.20;21.90;;;;;;;3.07;100.00;100066.08;109604;1242;57655;-79
2024/01/07 02:12:05;;;;;;;41.70;23.70;;;;;;;3.06;100.00;100063.00;109623;1243;63666;-81
2024/01/07 02:14:34;;;;;;;36.80;20.60;;;;;;;3.02;100.00;100065.81;109491;1240;60702;-80
2024/01/07 02:17:05;;;;;;;41.70;23.50;;;;;;;2.99;100.00;100072.30;109588;1240;59208;-81
2024/01/07 02:19:34;;;;;;;36.70;21.90;;;;;;;3.01;100.00;100073.78;109622;1243;62448;-80
2024/01/07 02:22:04;;;;;;;37.40;21.50;;;;;;;3.01;100.00;100070.83;109788;1242;57153;-82
2024/01/07 02:24:33;;;;;;;37.70;21.80;;;;;;;2.99;100.00;100065.29;109733;1241;61021;-82
2024/01/07 02:27:02;;;;;;;39.70;23.50;;;;;;;2.97;100.00;100066.25;109847;1242;63380;-79
2024/01/07 02:29:31;;;;;;;40.20;22.70;;;;;;;2.98;100.00;100069.27;109834;1240;61498;-82
2024/01/07 02:32:00;;;;;;;46.00;23.50;;;;;;;2.97;100.00;100066.77;109826;1242;60012;-81
2024/01/07 02:34:29;;;;;;;44.20;23.30;;;;;;;3.00;100.00;100065.39;109573;1243;73017;-81
2024/01/07 02:36:58;;;;;;;47.00;23.30;;;;;;;3.07;100.00;100068.29;109682;1241;63424;-80
2024/01/07 02:39:26;;;;;;;48.30;25.40;;;;;;;3.10;100.00;100075.03;109707;1241;60521;-79
2024/01/07 02:41:55;;;;;;;46.10;24.00;;;;;;;3.12;100.00;100078.36;109691;1242;62934;-80
2024/01/07 02:44:24;;;;;;;44.40;23.50;;;;;;;3.13;100.00;100071.61;109479;1244;61997;-79
2024/01/07 02:46:53;;;;;;;47.40;24.80;;;;;;;3.15;100.00;100070.43;109589;1240;70447;-82
2024/01/07 02:49:24;;;;;;;51.50;24.20;;;;;;;3.11;100.00;100069.27;109530;1241;74738;-82
2024/01/07 02:51:53;;;;;;;54.50;25.90;;;;;;;3.11;100.00;100072.92;109478;1244;61581;-82
2024/01/07 02:54:22;;;;;;;55.50;27.00;;;;;;;3.15;100.00;100071.50;109678;1242;57751;-82
2024/01/07 02:56:51;;;;;;;57.80;27.80;;;;;;;3.02;100.00;100069.74;109567;1244;62732;-82
2024/01/07 02:59:20;;;;;;;58.20;27.00;;;;;;;3.07;100.00;100066.40;109840;1241;71994;-83
2024/01/07 03:01:48;;;;;;;54.70;28.20;;;;;;;3.13;100.00;100063.30;109763;1241;69845;-81
2024/01/07 03:04:18;;;;;;;54.10;27.10;;;;;;;3.26;100.00;100066.99;109820;1241;72637;-81
2024/01/07 03:06:46;;;;;;;54.70;24.70;;;;;;;3.33;100.00;100068.98;109814;1242;61575;-82
2024/01/07 03:09:15;;;;;;;53.50;26.00;;;;;;;3.30;100.00;100076.36;109836;1242;58007;-81
2024/01/07 03:11:44;;;;;;;55.70;25.60;;;;;;;3.27;100.00;100079.31;109838;1242;62728;-81
2024/01/07 03:14:13;;;;;;;56.60;24.90;;;;;;;3.24;100.00;100078.27;109854;1242;61402;-81
2024/01/07 03:16:42;;;;;;;52.90;25.10;;;;;;;3.21;100.00;100078.60;109673;1240;70356;-81
2024/01/07 03:19:10;;;;;;;58.20;26.10;;;;;;;3.32;100.00;100081.09;109439;1240;74173;-81
2024/01/07 03:21:39;;;;;;;54.90;24.00;;;;;;;3.34;100.00;100084.45;109629;1241;57688;-81
2024/01/07 03:24:08;;;;;;;55.90;25.40;;;;;;;3.37;100.00;100087.54;109646;1239;57690;-80
2024/01/07 03:26:37;;;;;;;60.00;29.20;;;;;;;3.35;100.00;100086.47;109532;1241;73551;-81
2024/01/07 03:29:05;;;;;;;58.50;27.40;;;;;;;3.32;100.00;100082.14;109626;1241;62773;-80
2024/01/07 03:31:34;;;;;;;60.00;26.40;;;;;;;3.35;100.00;100077.31;109634;1242;60446;-81
2024/01/07 03:34:03;;;;;;;66.00;28.60;;;;;;;3.36;100.00;100082.77;109662;1242;63054;-78
2024/01/07 03:36:34;;;;;;;66.70;27.50;;;;;;;3.40;100.00;100089.82;109635;1242;57337;-80
2024/01/07 03:39:03;;;;;;;67.50;28.90;;;;;;;3.44;100.00;100086.15;109646;1242;59948;-79
2024/01/07 03:41:32;;;;;;;67.60;28.90;;;;;;;3.45;100.00;100080.22;109665;1242;63370;-79
2024/01/07 03:44:01;;;;;;;61.80;29.80;;;;;;;3.49;100.00;100080.38;109561;1240;71075;-81
2024/01/07 03:46:29;;;;;;;62.70;28.20;;;;;;;3.49;100.00;100084.20;109708;1240;70066;-81
2024/01/07 03:48:58;;;;;;;69.00;29.10;;;;;;;3.55;100.00;100081.60;109686;1242;63810;-81
2024/01/07 03:51:27;;;;;;;66.80;28.50;;;;;;;3.60;100.00;100077.58;109674;1242;57683;-81
2024/01/07 03:53:56;;;;;;;62.40;28.50;;;;;;;3.69;100.00;100076.39;109709;1242;57749;-81
2024/01/07 03:56:25;;;;;;;64.90;28.60;;;;;;;3.67;100.00;100084.06;109743;1241;71993;-81
2024/01/07 03:58:53;;;;;;;63.50;28.60;;;;;;;3.54;100.00;100092.34;109856;1240;71634;-80
2024/01/07 04:01:22;;;;;;;74.50;28.60;;;;;;;3.58;100.00;100094.55;109797;1242;60175;-77
2024/01/07 04:03:51;;;;;;;72.60;30.50;;;;;;;3.59;100.00;100103.44;109700;1242;63040;-83
2024/01/07 04:06:20;;;;;;;64.90;29.10;;;;;;;3.60;100.00;100109.22;109896;1240;57928;-78
2024/01/07 04:08:49;;;;;;;73.00;29.30;;;;;;;3.73;100.00;100111.13;109767;1241;59921;-82
2024/01/07 04:11:17;;;;;;;69.40;28.90;;;;;;;3.78;100.00;100102.92;109838;1242;74197;-79
2024/01/07 04:13:46;;;;;;;72.90;29.50;;;;;;;3.73;100.00;100101.86;109909;1242;61120;-83
2024/01/07 04:16:21;;;;;;;71.40;29.70;;;;;;;3.61;100.00;100107.46;110108;1241;59809;-83
2024/01/07 04:18:50;;;;;;;74.40;31.30;;;;;;;3.55;100.00;100112.98;109870;1243;72017;-84
2024/01/07 04:21:21;;;;;;;73.20;30.10;;;;;;;3.53;100.00;100117.20;109676;1242;62364;-84
2024/01/07 04:23:50;;;;;;;75.70;31.30;;;;;;;3.59;100.00;100116.17;109748;1242;61644;-83
2024/01/07 04:26:19;;;;;;;60.80;26.20;;;;;;;3.68;100.00;100119.34;109759;1241;64219;-78
2024/01/07 04:28:48;;;;;;;64.10;25.70;;;;;;;3.84;100.00;100120.74;109775;1241;61483;-79
2024/01/07 04:31:17;;;;;;;54.40;25.40;;;;;;;3.83;100.00;100126.63;109766;1241;70178;-80
2024/01/07 04:33:46;;;;;;;68.40;27.10;;;;;;;3.75;100.00;100124.81;110059;1242;74177;-78
2024/01/07 04:36:15;;;;;;;75.00;29.10;;;;;;;3.67;100.00;100120.02;110018;1242;61492;-82
2024/01/07 04:38:43;;;;;;;69.50;28.20;;;;;;;3.67;100.00;100109.58;109687;1241;61399;-78
2024/01/07 04:41:12;;;;;;;74.10;29.40;;;;;;;3.68;100.00;100109.68;109819;1241;63701;-80
2024/01/07 04:43:43;;;;;;;76.60;30.70;;;;;;;3.72;100.00;100107.71;109708;1241;63415;-78
2024/01/07 04:46:12;;;;;;;77.90;30.00;;;;;;;3.75;100.00;100103.60;109728;1241;70002;-78
2024/01/07 04:48:41;;;;;;;76.70;31.80;;;;;;;3.80;100.00;100094.91;109706;1241;74323;-80
2024/01/07 04:51:09;;;;;;;79.30;30.60;;;;;;;3.83;100.00;100086.96;109592;1245;61655;-78
2024/01/07 04:53:38;;;;;;;77.30;30.70;;;;;;;3.83;100.00;100082.35;109731;1241;57173;-78
2024/01/07 04:56:07;;;;;;;70.10;28.50;;;;;;;3.82;100.00;100076.35;109794;1241;62132;-79
2024/01/07 04:58:36;;;;;;;85.90;30.80;;;;;;;3.85;100.00;100071.72;109789;1241;71961;-77
2024/01/07 05:01:04;;;;;;;76.30;32.50;;;;;;;3.85;100.00;100072.55;109784;1242;69162;-77
2024/01/07 05:03:35;;;;;;;78.70;30.40;;;;;;;3.83;100.00;100068.75;109636;1241;62795;-77
2024/01/07 05:06:04;;;;;;;77.50;30.10;;;;;;;3.85;100.00;100067.23;109845;1242;57672;-77
2024/01/07 05:08:33;;;;;;;74.60;29.40;;;;;;;3.87;100.00;100063.02;109816;1241;57214;-80
2024/01/07 05:11:05;;;;;;;76.70;30.20;;;;;;;3.94;100.00;100061.89;109747;1241;62833;-80
2024/01/07 05:13:47;;;;;;;78.00;30.20;;;;;;;3.98;100.00;100060.30;109817;1241;60807;-80
2024/01/07 05:16:20;;;;;;;78.30;29.80;;;;;;;3.97;100.00;100064.88;109808;1240;69479;-83
2024/01/07 05:18:49;;;;;;;74.10;28.10;;;;;;;4.03;100.00;100062.48;109791;1240;73520;-85
2024/01/07 05:21:18;;;;;;;71.40;27.30;;;;;;;4.06;100.00;100068.84;109906;1241;57688;-85
2024/01/07 05:23:47;;;;;;;72.80;27.70;;;;;;;4.05;100.00;100071.52;109837;1240;57119;-85
2024/01/07 05:26:16;;;;;;;51.50;23.10;;;;;;;4.05;100.00;100073.58;109797;1241;62199;-85
2024/01/07 05:28:45;;;;;;;71.30;28.70;;;;;;;4.03;100.00;100070.70;109931;1240;72062;-85
2024/01/07 05:31:20;;;;;;;69.20;26.60;;;;;;;3.96;100.00;100070.23;109913;1239;70269;-84
2024/01/07 05:33:48;;;;;;;68.70;27.90;;;;;;;3.95;100.00;100071.14;109709;1241;74269;-78
2024/01/07 05:36:17;;;;;;;55.90;23.60;;;;;;;3.92;100.00;100075.83;109880;1242;62327;-81
2024/01/07 05:38:46;;;;;;;55.90;25.60;;;;;;;4.01;100.00;100070.84;109731;1240;61128;-81
2024/01/07 05:41:20;;;;;;;69.50;28.90;;;;;;;3.97;100.00;100066.25;109940;1240;63281;-79
2024/01/07 05:43:57;;;;;;;57.90;22.00;;;;;;;3.89;100.00;100071.65;109925;1241;71289;-79
2024/01/07 05:46:26;;;;;;;51.10;20.90;;;;;;;3.86;100.00;100079.27;109941;1240;60400;-79
2024/01/07 05:49:28;;;;;;;58.80;25.20;;;;;;;3.80;100.00;100087.69;109820;1241;62344;-79
2024/01/07 05:51:57;;;;;;;54.70;24.50;;;;;;;3.66;100.00;100091.34;109808;1242;58015;-79
2024/01/07 05:54:26;;;;;;;77.30;29.20;;;;;;;3.58;100.00;100085.92;109949;1241;59866;-82
2024/01/07 05:56:57;;;;;;;74.60;30.30;;;;;;;3.57;100.00;100080.12;109859;1241;72195;-83
2024/01/07 05:59:25;;;;;;;75.20;29.40;;;;;;;3.60;100.00;100071.54;109950;1241;71519;-83
2024/01/07 06:01:59;;;;;;;79.60;30.00;;;;;;;3.67;100.00;100069.95;109987;1240;60371;-83
2024/01/07 06:04:28;;;;;;;74.60;30.10;;;;;;;3.70;100.00;100067.55;109998;1239;72149;-82
2024/01/07 06:06:58;;;;;;;75.10;27.80;;;;;;;3.77;100.00;100063.92;109967;1242;61607;-82
2024/01/07 06:09:29;;;;;;;70.30;26.20;;;;;;;3.85;100.00;100058.80;109939;1240;60737;-83
2024/01/07 06:11:57;;;;;;;74.60;28.20;;;;;;;3.84;100.00;100058.73;110174;1240;73943;-83
2024/01/07 06:15:13;;;;;;;81.60;31.80;;;;;;;3.77;100.00;100063.73;110186;1240;61328;-82
2024/01/07 06:17:42;;;;;;;84.50;31.50;;;;;;;3.72;100.00;100060.39;109682;1246;69635;-83
2024/01/07 06:20:11;;;;;;;80.00;29.70;;;;;;;3.75;100.00;100061.79;110088;1241;72633;-82
2024/01/07 06:22:43;;;;;;;77.00;28.50;;;;;;;3.91;100.00;100065.85;109781;1245;60480;-82
2024/01/07 06:25:20;;;;;;;72.60;29.10;;;;;;;3.99;100.00;100068.02;109818;1241;61498;-81
2024/01/07 06:27:58;;;;;;;75.80;29.90;;;;;;;4.02;100.00;100061.32;109811;1241;71941;-83
2024/01/07 06:30:29;;;;;;;75.80;30.20;;;;;;;3.96;100.00;100059.91;109735;1240;73040;-80
2024/01/07 06:33:02;;;;;;;72.40;30.30;;;;;;;3.91;100.00;100060.01;109727;1240;70598;-83
2024/01/07 06:35:31;;;;;;;73.80;30.70;;;;;;;3.91;100.00;100060.86;109772;1240;63885;-82
2024/01/07 06:38:00;;;;;;;79.00;30.80;;;;;;;3.96;100.00;100054.91;109720;1242;57567;-77
2024/01/07 06:40:29;;;;;;;85.10;41.80;;;;;;;4.12;100.00;100052.51;109722;1241;61035;-76
2024/01/07 06:42:58;;;;;;;74.70;33.10;;;;;;;4.16;100.00;100052.61;109601;1240;73336;-76
2024/01/07 06:45:26;;;;;;;76.40;29.10;;;;;;;4.23;100.00;100055.64;109731;1241;72491;-75
2024/01/07 06:47:55;;;;;;;73.80;29.30;;;;;;;4.08;100.00;100053.90;109610;1240;60309;-76
2024/01/07 06:50:27;;;;;;;72.80;29.20;;;;;;;4.08;100.00;100054.97;109598;1241;63296;-76
2024/01/07 06:52:56;;;;;;;80.60;30.00;;;;;;;4.12;100.00;100056.10;109558;1243;61903;-76
2024/01/07 06:55:25;;;;;;;72.60;29.70;;;;;;;4.10;100.00;100056.95;109674;1241;60517;-78
2024/01/07 06:57:54;;;;;;;69.00;28.60;;;;;;;4.10;100.00;100060.70;109667;1240;73949;-76
2024/01/07 07:00:23;;;;;;;59.90;26.40;;;;;;;4.06;100.00;100063.17;109654;1241;71529;-75
2024/01/07 07:02:52;;;;;;;55.50;25.10;;;;;;;4.03;100.00;100061.98;109655;1240;61966;-76
2024/01/07 07:05:21;;;;;;;56.00;24.90;;;;;;;4.14;100.00;100061.70;109671;1240;62831;-77
2024/01/07 07:07:50;;;;;;;58.20;24.10;;;;;;;4.25;100.00;100068.15;109717;1241;61836;-77
2024/01/07 07:10:23;;;;;;;60.60;25.20;;;;;;;4.31;100.00;100069.00;109682;1240;60759;-78
2024/01/07 07:12:51;;;;;;;51.60;23.50;;;;;;;4.37;100.00;100066.41;109598;1240;73908;-78
2024/01/07 07:15:20;;;;;;;60.60;26.60;;;;;;;4.36;100.00;100067.00;109762;1240;61999;-78
2024/01/07 07:17:49;;;;;;;56.20;26.40;;;;;;;4.42;100.00;100068.38;109678;1240;59865;-79
2024/01/07 07:20:18;;;;;;;58.50;26.60;;;;;;;4.40;100.00;100064.02;109699;1240;73177;-78
2024/01/07 07:22:47;;;;;;;58.10;24.80;;;;;;;4.47;100.00;100073.21;109670;1241;61981;-77
2024/01/07 07:25:16;;;;;;;55.80;24.30;;;;;;;4.46;100.00;100071.59;109602;1240;60687;-77
2024/01/07 07:27:45;;;;;;;53.60;24.50;;;;;;;4.33;100.00;100065.94;109657;1241;74069;-80
2024/01/07 07:30:14;;;;;;;55.90;25.70;;;;;;;4.37;100.00;100063.27;109730;1240;71595;-80
2024/01/07 07:32:43;;;;;;;60.10;26.90;;;;;;;4.31;100.00;100060.90;109729;1241;70382;-80
2024/01/07 07:35:12;;;;;;;64.30;29.20;;;;;;;4.30;100.00;100061.97;109741;1240;63545;-80
2024/01/07 07:37:41;;;;;;;61.00;26.70;;;;;;;4.26;100.00;100065.12;109673;1241;60501;-81
2024/01/07 07:40:12;;;;;;;62.40;29.10;;;;;;;4.27;100.00;100067.52;109929;1240;60871;-79
2024/01/07 07:42:41;;;;;;;67.10;28.80;;;;;;;4.33;100.00;100065.61;109947;1241;73279;-81
2024/01/07 07:45:11;;;;;;;64.50;29.70;;;;;;;4.37;100.00;100060.91;109554;1250;62300;-82
2024/01/07 07:47:44;;;;;;;57.70;26.30;;;;;;;4.42;100.00;100062.52;109206;1250;70697;-85
2024/01/07 07:50:13;;;;;;;34.80;18.00;;;;;;;4.50;100.00;100060.48;109121;1250;74303;-77
2024/01/07 07:52:43;;;;;;;16.40;9.30;;;;;;;4.56;100.00;100056.02;109092;1250;61858;-76
2024/01/07 07:55:12;;;;;;;16.30;9.00;;;;;;;4.58;100.00;100053.67;109263;1250;57700;-79
2024/01/07 07:57:41;;;;;;;16.90;8.80;;;;;;;4.59;100.00;100051.20;109297;1250;62892;-78
2024/01/07 08:00:12;;;;;;;17.90;9.40;;;;;;;4.61;100.00;100055.05;109299;1250;61564;-83
2024/01/07 08:02:41;;;;;;;17.90;9.10;;;;;;;4.64;100.00;100058.64;109030;1250;60046;-78
2024/01/07 08:05:10;;;;;;;15.90;9.10;;;;;;;4.61;100.00;100055.58;109128;1249;62626;-76
2024/01/07 08:07:39;;;;;;;13.10;7.80;;;;;;;4.48;100.00;100055.09;109139;1250;57604;-87
2024/01/07 08:10:08;;;;;;;13.30;7.60;;;;;;;4.45;100.00;100050.96;109341;1251;61158;-84
2024/01/07 08:12:37;;;;;;;16.10;8.40;;;;;;;4.35;100.00;100050.69;109193;1251;63213;-76
2024/01/07 08:15:07;;;;;;;14.90;8.10;;;;;;;4.34;100.00;100052.78;109242;1250;71187;-77
2024/01/07 08:17:36;;;;;;;15.90;8.10;;;;;;;4.31;100.00;100051.10;109188;1253;60214;-80
2024/01/07 08:20:06;;;;;;;15.30;8.60;;;;;;;4.33;100.00;100048.02;109206;1250;73820;-66
2024/01/07 08:22:34;;;;;;;17.20;9.50;;;;;;;4.36;100.00;100048.02;109228;1250;61395;-68
2024/01/07 08:25:04;;;;;;;18.70;8.60;;;;;;;4.34;100.00;100052.11;109228;1253;58707;-70
2024/01/07 08:27:32;;;;;;;17.20;9.50;;;;;;;4.38;100.00;100053.44;109149;1249;73565;-66
2024/01/07 08:30:01;;;;;;;17.00;9.70;;;;;;;4.32;100.00;100050.83;109160;1250;63433;-78
2024/01/07 08:32:30;;;;;;;16.30;8.90;;;;;;;4.27;100.00;100049.04;109034;1249;59372;-78
2024/01/07 08:34:59;;;;;;;16.10;9.20;;;;;;;4.29;100.00;100050.64;108853;1250;62490;-79
2024/01/07 08:37:28;;;;;;;16.10;9.30;;;;;;;4.19;100.00;100050.55;109129;1250;60899;-85
2024/01/07 08:39:57;;;;;;;16.60;9.20;;;;;;;4.18;100.00;100054.38;109229;1250;57196;-81
2024/01/07 08:42:29;;;;;;;16.40;9.20;;;;;;;4.11;100.00;100055.66;109326;1252;62210;-84
2024/01/07 08:45:00;;;;;;;16.70;10.00;;;;;;;4.08;100.00;100051.17;109106;1249;61644;-82
2024/01/07 08:47:31;;;;;;;18.50;10.20;;;;;;;4.05;100.00;100048.95;109336;1249;59638;-82
2024/01/07 08:50:07;;;;;;;17.70;9.60;;;;;;;4.04;100.00;100044.34;109348;1251;73022;-79
2024/01/07 08:52:36;;;;;;;18.90;8.90;;;;;;;3.97;100.00;100040.23;109162;1252;61260;-77
2024/01/07 08:55:06;;;;;;;17.00;10.10;;;;;;;3.98;100.00;100038.80;109386;1250;61496;-80
2024/01/07 08:57:35;;;;;;;18.20;9.30;;;;;;;3.98;100.00;100035.69;109389;1250;72181;-79
2024/01/07 09:00:07;;;;;;;17.20;10.10;;;;;;;3.94;100.00;100030.92;109367;1251;62393;-80
2024/01/07 09:02:36;;;;;;;17.40;9.90;;;;;;;3.95;100.00;100024.82;109030;1249;60133;-80
2024/01/07 09:05:12;;;;;;;19.20;9.90;;;;;;;3.90;100.00;100022.50;108977;1250;63264;-77
2024/01/07 09:07:44;;;;;;;;;;;;;;;3.90;100.00;100021.48;109023;1254;57618;-79
2024/01/07 09:10:13;;;;;;;17.40;9.60;;;;;;;3.93;100.00;100019.27;109148;1250;59490;-78
2024/01/07 09:12:42;;;;;;;18.60;9.60;;;;;;;3.95;100.00;100020.15;109123;1252;62397;-77
2024/01/07 09:15:11;;;;;;;30.30;16.40;;;;;;;3.93;100.00;100019.94;109118;1252;60958;-80
2024/01/07 09:17:40;;;;;;;20.10;10.60;;;;;;;3.89;100.00;100024.64;109189;1250;70493;-82
2024/01/07 09:20:10;;;;;;;18.80;10.20;;;;;;;3.92;100.00;100024.16;109136;1250;72918;-77
2024/01/07 09:22:40;;;;;;;20.70;10.00;;;;;;;3.88;100.00;100022.44;109004;1251;57203;-77
2024/01/07 09:25:09;;;;;;;18.00;10.60;;;;;;;3.89;100.00;100016.90;108984;1250;61244;-76
2024/01/07 09:27:38;;;;;;;22.00;12.40;;;;;;;3.88;100.00;100015.40;109135;1252;63292;-81
2024/01/07 09:30:10;;;;;;;19.20;10.10;;;;;;;3.83;100.00;100011.01;108874;1255;60710;-76
2024/01/07 09:32:39;;;;;;;19.00;10.70;;;;;;;3.77;100.00;100008.98;109114;1250;60380;-82
2024/01/07 09:35:08;;;;;;;20.10;11.20;;;;;;;3.81;100.00;100007.53;109086;1250;62516;-74
2024/01/07 09:37:37;;;;;;;20.50;11.50;;;;;;;3.88;100.00;100004.36;109002;1251;57733;-77
2024/01/07 09:40:07;;;;;;;22.20;12.00;;;;;;;3.77;100.00;100008.98;109139;1250;59339;-75
2024/01/07 09:42:36;;;;;;;20.10;11.30;;;;;;;3.74;100.00;100005.83;109095;1250;72500;-77
2024/01/07 09:45:05;;;;;;;22.40;11.80;;;;;;;3.68;100.00;99999.09;108960;1250;71349;-82
2024/01/07 09:47:35;;;;;;;17.10;9.90;;;;;;;3.63;100.00;99996.44;109012;1250;62501;-77
2024/01/07 09:50:05;;;;;;;20.30;12.20;;;;;;;3.49;100.00;100000.86;108825;1255;62926;-76
2024/01/07 09:52:33;;;;;;;23.70;12.50;;;;;;;3.49;100.00;99997.77;109141;1252;60487;-68
2024/01/07 09:55:06;;;;;;;23.90;12.60;;;;;;;3.49;100.00;99993.79;109126;1252;61788;-66
2024/01/07 09:57:38;;;;;;;24.30;12.60;;;;;;;3.42;100.00;99989.88;108973;1251;63563;-81
2024/01/07 10:00:08;;;;;;;19.80;11.90;;;;;;;3.40;100.00;99989.48;108990;1251;61333;-78
2024/01/07 10:02:43;;;;;;;24.60;13.40;;;;;;;3.38;100.00;99990.42;109003;1250;70892;-74
2024/01/07 10:05:12;;;;;;;20.90;11.40;;;;;;;3.38;100.00;99984.39;109090;1251;72628;-75
2024/01/07 10:07:41;;;;;;;24.80;14.40;;;;;;;3.31;100.00;99986.33;109163;1250;61368;-75
2024/01/07 10:10:17;;;;;;;24.10;14.60;;;;;;;3.21;100.00;99975.65;109112;1250;61118;-74
2024/01/07 10:12:47;;;;;;;25.20;14.50;;;;;;;3.15;100.00;99973.55;109108;1253;63297;-73
2024/01/07 10:15:16;;;;;;;25.80;13.90;;;;;;;3.16;100.00;99973.52;108767;1251;72337;-73
2024/01/07 10:17:45;;;;;;;29.00;15.60;;;;;;;3.20;100.00;99971.93;109096;1249;70845;-73
2024/01/07 10:20:16;;;;;;;31.10;16.40;;;;;;;3.16;100.00;99973.66;108952;1253;63994;-73
2024/01/07 10:22:52;;;;;;;25.20;13.20;;;;;;;3.09;100.00;99973.73;109046;1251;57654;-75
2024/01/07 10:25:21;;;;;;;28.10;15.00;;;;;;;2.99;100.00;99971.34;108888;1250;60354;-74
2024/01/07 10:27:53;;;;;;;23.30;12.60;;;;;;;2.93;100.00;99971.13;108856;1250;73894;-73
2024/01/07 10:30:22;;;;;;;28.00;14.40;;;;;;;3.00;100.00;99968.52;108872;1250;72526;-73
2024/01/07 10:32:59;;;;;;;23.50;12.80;;;;;;;3.04;100.00;99969.21;109017;1253;60573;-73
2024/01/07 10:35:37;;;;;;;25.30;14.70;;;;;;;3.00;100.00;99966.14;109123;1252;62504;-73
2024/01/07 10:38:06;;;;;;;25.00;13.90;;;;;;;2.92;100.00;99968.61;109019;1253;57665;-74
2024/01/07 10:40:35;;;;;;;24.40;13.90;;;;;;;2.95;100.00;99968.27;109153;1250;61649;-74
2024/01/07 10:43:05;;;;;;;23.10;13.20;;;;;;;2.95;100.00;99965.69;109169;1250;72423;-72
2024/01/07 10:45:33;;;;;;;22.60;12.80;;;;;;;2.85;100.00;99965.84;108770;1249;71667;-73
2024/01/07 10:48:08;;;;;;;23.50;12.90;;;;;;;2.86;100.00;99963.27;108948;1250;69538;-74
2024/01/07 10:50:39;;;;;;;28.10;14.70;;;;;;;2.75;100.00;99958.69;108673;1254;74771;-74
2024/01/07 10:53:13;;;;;;;24.80;14.20;;;;;;;2.79;100.00;99955.36;108980;1249;62050;-74
2024/01/07 10:55:49;;;;;;;23.60;12.30;;;;;;;2.76;100.00;99952.59;109023;1251;57487;-74
2024/01/07 10:58:20;;;;;;;28.60;15.50;;;;;;;2.76;100.00;99950.00;109025;1251;62228;-74
2024/01/07 11:00:49;;;;;;;26.90;12.90;;;;;;;2.70;100.00;99951.02;109001;1249;71458;-74
2024/01/07 11:03:45;;;;;;;27.40;15.40;;;;;;;2.79;100.00;99953.10;108840;1255;60522;-74
2024/01/07 11:06:42;;;;;;;21.40;11.80;;;;;;;2.79;100.00;99951.61;109195;1251;72032;-74
2024/01/07 11:09:29;;;;;;;19.40;12.30;;;;;;;2.76;100.00;99947.44;109081;1251;61845;-74
2024/01/07 11:11:59;;;;;;;25.40;13.70;;;;;;;2.82;100.00;99953.82;109103;1254;57295;-74
2024/01/07 11:14:52;;;;;;;20.90;11.60;;;;;;;2.79;100.00;99950.70;109106;1250;73534;-75
2024/01/07 11:17:39;;;;;;;17.00;10.50;;;;;;;2.69;100.00;99949.88;109101;1254;61323;-74
2024/01/07 11:20:18;;;;;;;19.00;10.40;;;;;;;2.74;100.00;99952.54;109109;1250;68887;-75